sensor_id;sensor_type;location;lat;lon;timestamp;pressure;altitude;pressure_sealevel;temperature;humidity
36354;BME280;22383;51.114;13.666;2023-07-29T00:02:03;69213.66;;;18.32;100.00
36354;BME280;22383;51.114;13.666;2023-07-29T00:04:31;69212.13;;;18.33;100.00
36354;BME280;22383;51.114;13.666;2023-07-29T00:06:58;69182.16;;;18.26;100.00
36354;BME280;22383;51.114;13.666;2023-07-29T00:09:25;69198.44;;;18.21;100.00
36354;BME280;22383;51.114;13.666;2023-07-29T00:11:52;69194.44;;;18.18;100.00
36354;BME280;22383;51.114;13.666;2023-07-29T00:14:19;69195.41;;;18.16;100.00
36354;BME280;22383;51.114;13.666;2023-07-29T00:16:46;69187.06;;;18.11;100.00
36354;BME280;22383;51.114;13.666;2023-07-29T00:19:14;69189.16;;;18.10;100.00
36354;BME280;22383;51.114;13.666;2023-07-29T00:21:41;69187.06;;;18.11;100.00
36354;BME280;22383;51.114;13.666;2023-07-29T00:24:08;69186.88;;;18.08;100.00
36354;BME280;22383;51.114;13.666;2023-07-29T00:26:35;69181.34;;;18.06;100.00
36354;BME280;22383;51.114;13.666;2023-07-29T00:29:03;69182.47;;;18.07;100.00
36354;BME280;22383;51.114;13.666;2023-07-29T00:31:30;69183.03;;;18.07;100.00
36354;BME280;22383;51.114;13.666;2023-07-29T00:33:57;69182.88;;;18.05;100.00
36354;BME280;22383;51.114;13.666;2023-07-29T00:36:25;69178.88;;;18.01;100.00
36354;BME280;22383;51.114;13.666;2023-07-29T00:38:52;69181.91;;;18.06;100.00
36354;BME280;22383;51.114;13.666;2023-07-29T00:41:22;69181.72;;;18.04;100.00
36354;BME280;22383;51.114;13.666;2023-07-29T00:43:49;69155.34;;;18.02;100.00
36354;BME280;22383;51.114;13.666;2023-07-29T00:46:16;69182.13;;;18.02;100.00
36354;BME280;22383;51.114;13.666;2023-07-29T00:48:43;69172.38;;;18.00;100.00
36354;BME280;22383;51.114;13.666;2023-07-29T00:51:11;69186.31;;;18.08;100.00
36354;BME280;22383;51.114;13.666;2023-07-29T00:53:38;69189.72;;;18.11;100.00
36354;BME280;22383;51.114;13.666;2023-07-29T00:56:06;69185.16;;;18.07;100.00
36354;BME280;22383;51.114;13.666;2023-07-29T00:58:33;69182.31;;;18.04;100.00
36354;BME280;22383;51.114;13.666;2023-07-29T01:01:01;69182.31;;;18.04;100.00
36354;BME280;22383;51.114;13.666;2023-07-29T01:03:28;69180.75;;;18.05;100.00
36354;BME280;22383;51.114;13.666;2023-07-29T01:06:18;69182.47;;;18.07;100.00
36354;BME280;22383;51.114;13.666;2023-07-29T01:08:48;69155.94;;;18.02;100.00
36354;BME280;22383;51.114;13.666;2023-07-29T01:11:30;69181.72;;;18.04;100.00
36354;BME280;22383;51.114;13.666;2023-07-29T01:14:11;69188.19;;;18.12;100.00
36354;BME280;22383;51.114;13.666;2023-07-29T01:16:45;69197.47;;;18.23;100.00
36354;BME280;22383;51.114;13.666;2023-07-29T01:19:19;69185.56;;;18.29;100.00
36354;BME280;22383;51.114;13.666;2023-07-29T01:21:54;69203.41;;;18.23;100.00
36354;BME280;22383;51.114;13.666;2023-07-29T01:24:21;69200.16;;;18.23;100.00
36354;BME280;22383;51.114;13.666;2023-07-29T01:26:48;69215.94;;;18.35;100.00
36354;BME280;22383;51.114;13.666;2023-07-29T01:29:16;69182.16;;;18.26;100.00
36354;BME280;22383;51.114;13.666;2023-07-29T01:31:43;69196.16;;;18.19;100.00
36354;BME280;22383;51.114;13.666;2023-07-29T01:34:17;69192.16;;;18.16;100.00
36354;BME280;22383;51.114;13.666;2023-07-29T01:36:47;69174.75;;;18.19;100.00
36354;BME280;22383;51.114;13.666;2023-07-29T01:39:16;69202.66;;;18.20;100.00
36354;BME280;22383;51.114;13.666;2023-07-29T01:41:43;69216.91;;;18.33;100.00
36354;BME280;22383;51.114;13.666;2023-07-29T01:44:11;69199.03;;;18.22;100.00
36354;BME280;22383;51.114;13.666;2023-07-29T01:46:39;69204.72;;;18.27;100.00
36354;BME280;22383;51.114;13.666;2023-07-29T01:49:06;69224.50;;;18.42;100.00
36354;BME280;22383;51.114;13.666;2023-07-29T01:51:34;69220.50;;;18.39;100.00
36354;BME280;22383;51.114;13.666;2023-07-29T01:54:01;69214.41;;;18.36;100.00
36354;BME280;22383;51.114;13.666;2023-07-29T01:56:28;69193.56;;;18.36;100.00
36354;BME280;22383;51.114;13.666;2023-07-29T01:58:56;69209.09;;;18.28;100.00
36354;BME280;22383;51.114;13.666;2023-07-29T02:01:23;69210.44;;;18.32;100.00
36354;BME280;22383;51.114;13.666;2023-07-29T02:03:51;69223.38;;;18.41;100.00
36354;BME280;22383;51.114;13.666;2023-07-29T02:06:22;69196.41;;;18.39;100.00
36354;BME280;22383;51.114;13.666;2023-07-29T02:08:50;69223.94;;;18.42;100.00
36354;BME280;22383;51.114;13.666;2023-07-29T02:11:19;69221.09;;;18.39;100.00
36354;BME280;22383;51.114;13.666;2023-07-29T02:13:48;69212.72;;;18.34;100.00
36354;BME280;22383;51.114;13.666;2023-07-29T02:16:15;69191.28;;;18.34;100.00
36354;BME280;22383;51.114;13.666;2023-07-29T02:18:42;69202.81;;;18.23;100.00
36354;BME280;22383;51.114;13.666;2023-07-29T02:21:09;69177.59;;;18.22;100.00
36354;BME280;22383;51.114;13.666;2023-07-29T02:23:37;69196.72;;;18.20;100.00
36354;BME280;22383;51.114;13.666;2023-07-29T02:26:04;69196.16;;;18.19;100.00
36354;BME280;22383;51.114;13.666;2023-07-29T02:28:31;69211.97;;;18.31;100.00
36354;BME280;22383;51.114;13.666;2023-07-29T02:31:19;69177.59;;;18.22;100.00
36354;BME280;22383;51.114;13.666;2023-07-29T02:33:46;69189.72;;;18.11;100.00
36354;BME280;22383;51.114;13.666;2023-07-29T02:36:15;69191.44;;;18.12;100.00
36354;BME280;22383;51.114;13.666;2023-07-29T02:38:43;69180.59;;;18.03;100.00
36354;BME280;22383;51.114;13.666;2023-07-29T02:41:10;69180.59;;;18.03;100.00
36354;BME280;22383;51.114;13.666;2023-07-29T02:43:39;69176.03;;;17.99;100.00
36354;BME280;22383;51.114;13.666;2023-07-29T02:46:08;69205.69;;;18.25;100.00
36354;BME280;22383;51.114;13.666;2023-07-29T02:48:35;69190.47;;;18.14;100.00
36354;BME280;22383;51.114;13.666;2023-07-29T02:51:02;69192.00;;;18.13;100.00
36354;BME280;22383;51.114;13.666;2023-07-29T02:53:29;69194.69;;;18.13;100.00
36354;BME280;22383;51.114;13.666;2023-07-29T02:55:56;69195.59;;;18.19;100.00
36354;BME280;22383;51.114;13.666;2023-07-29T02:58:23;69196.72;;;18.20;100.00
36354;BME280;22383;51.114;13.666;2023-07-29T03:00:53;69191.59;;;18.15;100.00
36354;BME280;22383;51.114;13.666;2023-07-29T03:03:20;69196.00;;;18.17;100.00
36354;BME280;22383;51.114;13.666;2023-07-29T03:05:48;69157.63;;;18.04;100.00
36354;BME280;22383;51.114;13.666;2023-07-29T03:08:15;69178.88;;;18.01;100.00
36354;BME280;22383;51.114;13.666;2023-07-29T03:10:42;69174.34;;;17.97;100.00
36354;BME280;22383;51.114;13.666;2023-07-29T03:13:09;69190.84;;;18.12;100.00
36354;BME280;22383;51.114;13.666;2023-07-29T03:15:36;69203.56;;;18.26;100.00
36354;BME280;22383;51.114;13.666;2023-07-29T03:18:04;69196.97;;;18.15;100.00
36354;BME280;22383;51.114;13.666;2023-07-29T03:20:32;69188.81;;;18.05;100.00
36354;BME280;22383;51.114;13.666;2023-07-29T03:22:59;69196.56;;;18.17;100.00
36354;BME280;22383;51.114;13.666;2023-07-29T03:25:26;69171.31;;;18.16;100.00
36354;BME280;22383;51.114;13.666;2023-07-29T03:27:53;69199.41;;;18.20;100.00
36354;BME280;22383;51.114;13.666;2023-07-29T03:30:20;69192.00;;;18.13;100.00
36354;BME280;22383;51.114;13.666;2023-07-29T03:32:52;69185.16;;;18.07;100.00
36354;BME280;22383;51.114;13.666;2023-07-29T03:35:19;69198.84;;;18.19;100.00
36354;BME280;22383;51.114;13.666;2023-07-29T03:37:46;69213.28;;;18.35;100.00
36354;BME280;22383;51.114;13.666;2023-07-29T03:40:14;69203.56;;;18.26;100.00
36354;BME280;22383;51.114;13.666;2023-07-29T03:42:41;69199.41;;;18.20;100.00
36354;BME280;22383;51.114;13.666;2023-07-29T03:45:08;69196.16;;;18.19;100.00
36354;BME280;22383;51.114;13.666;2023-07-29T03:47:36;69182.16;;;18.26;100.00
36354;BME280;22383;51.114;13.666;2023-07-29T03:50:03;69207.16;;;18.31;100.00
36354;BME280;22383;51.114;13.666;2023-07-29T03:52:31;69205.69;;;18.25;100.00
36354;BME280;22383;51.114;13.666;2023-07-29T03:54:58;69202.44;;;18.25;100.00
36354;BME280;22383;51.114;13.666;2023-07-29T03:57:25;69176.44;;;18.21;100.00
36354;BME280;22383;51.114;13.666;2023-07-29T03:59:53;69194.28;;;18.15;100.00
36354;BME280;22383;51.114;13.666;2023-07-29T04:02:21;69211.00;;;18.32;100.00
36354;BME280;22383;51.114;13.666;2023-07-29T04:04:48;69212.13;;;18.33;100.00
36354;BME280;22383;51.114;13.666;2023-07-29T04:07:15;69207.56;;;18.29;100.00
36354;BME280;22383;51.114;13.666;2023-07-29T04:09:43;69234.19;;;18.51;100.00
36354;BME280;22383;51.114;13.666;2023-07-29T04:12:10;69205.53;;;18.47;100.00
36354;BME280;22383;51.114;13.666;2023-07-29T04:14:38;69225.47;;;18.41;100.00
36354;BME280;22383;51.114;13.666;2023-07-29T04:17:05;69229.47;;;18.44;100.00
36354;BME280;22383;51.114;13.666;2023-07-29T04:19:32;69221.66;;;18.40;100.00
36354;BME280;22383;51.114;13.666;2023-07-29T04:22:00;69220.50;;;18.39;100.00
36354;BME280;22383;51.114;13.666;2023-07-29T04:24:27;69219.38;;;18.38;100.00
36354;BME280;22383;51.114;13.666;2023-07-29T04:26:55;69214.41;;;18.36;100.00
36354;BME280;22383;51.114;13.666;2023-07-29T04:29:22;69222.97;;;18.43;100.00
36354;BME280;22383;51.114;13.666;2023-07-29T04:31:50;69218.97;;;18.40;100.00
36354;BME280;22383;51.114;13.666;2023-07-29T04:34:18;69233.63;;;18.50;100.00
36354;BME280;22383;51.114;13.666;2023-07-29T04:36:46;69218.63;;;18.59;100.00
36354;BME280;22383;51.114;13.666;2023-07-29T04:39:14;69232.66;;;18.52;100.00
36354;BME280;22383;51.114;13.666;2023-07-29T04:41:41;69232.66;;;18.52;100.00
36354;BME280;22383;51.114;13.666;2023-07-29T04:44:08;69238.19;;;18.55;100.00
36354;BME280;22383;51.114;13.666;2023-07-29T04:46:36;69252.63;;;18.70;100.00
36354;BME280;22383;51.114;13.666;2023-07-29T04:49:04;69240.31;;;18.78;100.00
36354;BME280;22383;51.114;13.666;2023-07-29T04:51:31;69257.75;;;18.75;100.00
36354;BME280;22383;51.114;13.666;2023-07-29T04:53:58;69255.28;;;18.70;100.00
36354;BME280;22383;51.114;13.666;2023-07-29T04:56:26;69250.34;;;18.68;100.00
36354;BME280;22383;51.114;13.666;2023-07-29T04:58:53;69270.91;;;18.86;100.00
36354;BME280;22383;51.114;13.666;2023-07-29T05:01:21;69260.59;;;18.77;100.00
36354;BME280;22383;51.114;13.666;2023-07-29T05:03:48;69273.00;;;18.86;100.00
36354;BME280;22383;51.114;13.666;2023-07-29T05:06:19;69267.47;;;18.83;100.00
36354;BME280;22383;51.114;13.666;2023-07-29T05:08:47;69280.97;;;18.93;100.00
36354;BME280;22383;51.114;13.666;2023-07-29T05:11:16;69283.28;;;18.95;100.00
36354;BME280;22383;51.114;13.666;2023-07-29T05:13:44;69263.69;;;18.99;100.00
36354;BME280;22383;51.114;13.666;2023-07-29T05:16:15;69268.25;;;19.03;100.00
36354;BME280;22383;51.114;13.666;2023-07-29T05:18:42;69269.41;;;19.04;100.00
36354;BME280;22383;51.114;13.666;2023-07-29T05:21:09;69273.97;;;19.08;100.00
36354;BME280;22383;51.114;13.666;2023-07-29T05:23:55;69273.41;;;19.08;100.00
36354;BME280;22383;51.114;13.666;2023-07-29T05:26:29;69318.81;;;19.30;100.00
36354;BME280;22383;51.114;13.666;2023-07-29T05:29:07;69323.78;;;19.32;100.00
36354;BME280;22383;51.114;13.666;2023-07-29T05:31:50;69327.38;;;19.37;100.00
36354;BME280;22383;51.114;13.666;2023-07-29T05:34:22;69335.38;;;19.44;100.00
36354;BME280;22383;51.114;13.666;2023-07-29T05:36:57;69330.63;;;19.38;100.00
36354;BME280;22383;51.114;13.666;2023-07-29T05:39:31;69347.16;;;19.53;100.00
36354;BME280;22383;51.114;13.666;2023-07-29T05:42:07;69329.31;;;19.34;100.00
36354;BME280;22383;51.114;13.666;2023-07-29T05:44:38;69322.78;;;19.33;100.00
36354;BME280;22383;51.114;13.666;2023-07-29T05:47:12;69329.66;;;19.39;100.00
36354;BME280;22383;51.114;13.666;2023-07-29T05:49:42;69330.78;;;19.40;100.00
36354;BME280;22383;51.114;13.666;2023-07-29T05:52:21;69347.91;;;19.56;100.00
36354;BME280;22383;51.114;13.666;2023-07-29T05:54:52;69360.47;;;19.67;100.00
36354;BME280;22383;51.114;13.666;2023-07-29T05:57:25;69375.31;;;19.80;100.00
36354;BME280;22383;51.114;13.666;2023-07-29T05:59:53;69403.13;;;20.03;100.00
36354;BME280;22383;51.114;13.666;2023-07-29T06:02:20;69411.28;;;20.13;100.00
36354;BME280;22383;51.114;13.666;2023-07-29T06:04:47;69435.69;;;20.32;100.00
36354;BME280;22383;51.114;13.666;2023-07-29T06:07:14;69460.59;;;20.76;100.00
36354;BME280;22383;51.114;13.666;2023-07-29T06:09:41;69508.38;;;21.00;100.00
36354;BME280;22383;51.114;13.666;2023-07-29T06:12:08;69520.78;;;21.09;100.00
36354;BME280;22383;51.114;13.666;2023-07-29T06:14:36;69522.09;;;21.12;100.00
36354;BME280;22383;51.114;13.666;2023-07-29T06:17:03;69549.91;;;21.35;100.00
36354;BME280;22383;51.114;13.666;2023-07-29T06:19:30;69566.28;;;21.71;100.00
36354;BME280;22383;51.114;13.666;2023-07-29T06:21:57;69638.69;;;22.17;100.00
36354;BME280;22383;51.114;13.666;2023-07-29T06:24:24;69681.03;;;22.55;100.00
36354;BME280;22383;51.114;13.666;2023-07-29T06:26:51;69656.59;;;22.53;100.00
36354;BME280;22383;51.114;13.666;2023-07-29T06:29:18;69652.03;;;22.49;100.00
36354;BME280;22383;51.114;13.666;2023-07-29T06:31:46;69633.75;;;22.32;100.00
36354;BME280;22383;51.114;13.666;2023-07-29T06:34:13;69628.03;;;22.27;100.00
36354;BME280;22383;51.114;13.666;2023-07-29T06:36:40;69657.59;;;22.34;100.00
36354;BME280;22383;51.114;13.666;2023-07-29T06:39:07;69648.59;;;22.45;100.00
36354;BME280;22383;51.114;13.666;2023-07-29T06:41:34;69628.03;;;22.27;100.00
36354;BME280;22383;51.114;13.666;2023-07-29T06:44:03;69625.94;;;22.03;100.00
36354;BME280;22383;51.114;13.666;2023-07-29T06:46:30;69574.28;;;21.79;100.00
36354;BME280;22383;51.114;13.666;2023-07-29T06:48:58;69568.41;;;21.54;100.00
36354;BME280;22383;51.114;13.666;2023-07-29T06:51:25;69557.53;;;21.44;100.00
36354;BME280;22383;51.114;13.666;2023-07-29T06:53:52;69549.34;;;21.34;100.00
36354;BME280;22383;51.114;13.666;2023-07-29T06:56:19;69550.66;;;21.38;100.00
36354;BME280;22383;51.114;13.666;2023-07-29T06:58:46;69519.41;;;21.29;100.00
36354;BME280;22383;51.114;13.666;2023-07-29T07:01:13;69526.28;;;21.36;100.00
36354;BME280;22383;51.114;13.666;2023-07-29T07:03:40;69551.63;;;21.37;100.00
36354;BME280;22383;51.114;13.666;2023-07-29T07:06:08;69528.00;;;21.37;100.00
36354;BME280;22383;51.114;13.666;2023-07-29T07:08:39;69551.81;;;21.39;100.00
36354;BME280;22383;51.114;13.666;2023-07-29T07:11:24;69554.66;;;21.42;100.00
36354;BME280;22383;51.114;13.666;2023-07-29T07:13:57;69559.06;;;21.43;100.00
36354;BME280;22383;51.114;13.666;2023-07-29T07:16:24;69565.38;;;21.49;100.00
36354;BME280;22383;51.114;13.666;2023-07-29T07:18:51;69567.25;;;21.53;100.00
36354;BME280;22383;51.114;13.666;2023-07-29T07:21:19;69556.56;;;21.63;100.00
36354;BME280;22383;51.114;13.666;2023-07-29T07:23:46;69602.09;;;21.84;100.00
36354;BME280;22383;51.114;13.666;2023-07-29T07:26:13;69600.41;;;21.83;100.00
36354;BME280;22383;51.114;13.666;2023-07-29T07:28:40;69618.94;;;21.95;100.00
36354;BME280;22383;51.114;13.666;2023-07-29T07:31:07;69624.97;;;22.05;100.00
36354;BME280;22383;51.114;13.666;2023-07-29T07:33:47;69621.72;;;22.21;100.00
36354;BME280;22383;51.114;13.666;2023-07-29T07:36:37;69681.59;;;22.56;100.00
36354;BME280;22383;51.114;13.666;2023-07-29T07:39:17;69712.06;;;23.02;100.00
36354;BME280;22383;51.114;13.666;2023-07-29T07:41:53;69753.81;;;23.40;100.00
36354;BME280;22383;51.114;13.666;2023-07-29T07:44:20;69776.72;;;23.60;100.00
36354;BME280;22383;51.114;13.666;2023-07-29T07:46:48;69757.81;;;23.44;100.00
36354;BME280;22383;51.114;13.666;2023-07-29T07:49:15;69733.25;;;23.21;100.00
36354;BME280;22383;51.114;13.666;2023-07-29T07:51:43;69733.66;;;23.02;100.00
36354;BME280;22383;51.114;13.666;2023-07-29T07:54:10;69705.78;;;22.97;100.00
36354;BME280;22383;51.114;13.666;2023-07-29T07:56:37;69701.78;;;22.93;100.00
36354;BME280;22383;51.114;13.666;2023-07-29T07:59:04;69725.81;;;23.15;100.00
36354;BME280;22383;51.114;13.666;2023-07-29T08:01:35;69770.28;;;23.35;100.00
36354;BME280;22383;51.114;13.666;2023-07-29T08:04:03;69774.13;;;23.36;100.00
36354;BME280;22383;51.114;13.666;2023-07-29T08:06:31;69770.97;;;23.55;100.00
36354;BME280;22383;51.114;13.666;2023-07-29T08:08:58;69802.88;;;23.65;100.00
36354;BME280;22383;51.114;13.666;2023-07-29T08:11:26;69813.59;;;23.72;100.00
36354;BME280;22383;51.114;13.666;2023-07-29T08:13:53;69806.47;;;23.87;100.00
36354;BME280;22383;51.114;13.666;2023-07-29T08:16:20;69803.03;;;23.84;100.00
36354;BME280;22383;51.114;13.666;2023-07-29T08:18:47;69780.41;;;23.42;100.00
36354;BME280;22383;51.114;13.666;2023-07-29T08:21:15;69785.00;;;23.46;100.00
36354;BME280;22383;51.114;13.666;2023-07-29T08:23:42;69755.53;;;23.41;100.00
36354;BME280;22383;51.114;13.666;2023-07-29T08:26:09;69754.41;;;23.40;100.00
36354;BME280;22383;51.114;13.666;2023-07-29T08:28:37;69782.88;;;23.47;100.00
36354;BME280;22383;51.114;13.666;2023-07-29T08:31:05;69771.41;;;23.36;100.00
36354;BME280;22383;51.114;13.666;2023-07-29T08:33:32;69760.38;;;23.24;100.00
36354;BME280;22383;51.114;13.666;2023-07-29T08:36:01;69751.97;;;23.19;100.00
36354;BME280;22383;51.114;13.666;2023-07-29T08:38:28;69761.13;;;23.27;100.00
36354;BME280;22383;51.114;13.666;2023-07-29T08:43:24;69776.00;;;23.40;100.00
36354;BME280;22383;51.114;13.666;2023-07-29T08:45:53;69757.25;;;23.43;100.00
36354;BME280;22383;51.114;13.666;2023-07-29T08:48:23;69756.09;;;23.42;100.00
36354;BME280;22383;51.114;13.666;2023-07-29T08:50:53;69756.09;;;23.42;100.00
36354;BME280;22383;51.114;13.666;2023-07-29T08:53:20;69755.97;;;23.22;100.00
36354;BME280;22383;51.114;13.666;2023-07-29T08:55:48;69744.94;;;23.10;100.00
36354;BME280;22383;51.114;13.666;2023-07-29T08:58:18;69721.25;;;23.11;100.00
36354;BME280;22383;51.114;13.666;2023-07-29T09:00:46;69739.22;;;23.05;100.00
36354;BME280;22383;51.114;13.666;2023-07-29T09:03:13;69700.06;;;22.92;100.00
36354;BME280;22383;51.114;13.666;2023-07-29T09:05:41;69704.63;;;22.96;100.00
36354;BME280;22383;51.114;13.666;2023-07-29T09:08:08;69759.97;;;23.26;100.00
36354;BME280;22383;51.114;13.666;2023-07-29T09:10:36;69788.59;;;23.52;100.00
36354;BME280;22383;51.114;13.666;2023-07-29T09:13:04;69795.59;;;23.77;100.00
36354;BME280;22383;51.114;13.666;2023-07-29T09:15:33;69830.97;;;23.90;100.00
36354;BME280;22383;51.114;13.666;2023-07-29T09:18:10;69809.34;;;23.90;100.00
36354;BME280;22383;51.114;13.666;2023-07-29T09:20:38;69849.53;;;24.02;100.00
36354;BME280;22383;51.114;13.666;2023-07-29T09:23:06;69845.84;;;24.03;100.00
36354;BME280;22383;51.114;13.666;2023-07-29T09:25:34;69836.22;;;24.14;100.00
36354;BME280;22383;51.114;13.666;2023-07-29T09:28:02;69833.25;;;23.92;100.00
36354;BME280;22383;51.114;13.666;2023-07-29T09:30:34;69852.72;;;24.09;100.00
36354;BME280;22383;51.114;13.666;2023-07-29T09:33:01;69878.03;;;24.34;100.00
36354;BME280;22383;51.114;13.666;2023-07-29T09:35:29;69885.91;;;24.39;100.00
36354;BME280;22383;51.114;13.666;2023-07-29T09:37:57;69897.19;;;24.47;100.00
36354;BME280;22383;51.114;13.666;2023-07-29T09:40:24;69863.72;;;24.39;100.00
36354;BME280;22383;51.114;13.666;2023-07-29T09:42:52;69872.75;;;24.27;100.00
36354;BME280;22383;51.114;13.666;2023-07-29T09:45:23;69844.81;;;24.22;100.00
36354;BME280;22383;51.114;13.666;2023-07-29T09:47:51;69849.38;;;24.26;100.00
36354;BME280;22383;51.114;13.666;2023-07-29T09:50:20;69885.19;;;24.36;100.00
36354;BME280;22383;51.114;13.666;2023-07-29T09:52:50;69870.00;;;24.44;100.00
36354;BME280;22383;51.114;13.666;2023-07-29T09:55:21;69890.34;;;24.41;100.00
36354;BME280;22383;51.114;13.666;2023-07-29T09:57:49;69881.91;;;24.35;100.00
36354;BME280;22383;51.114;13.666;2023-07-29T10:00:19;69855.13;;;24.31;100.00
36354;BME280;22383;51.114;13.666;2023-07-29T10:02:47;69849.94;;;24.26;100.00
36354;BME280;22383;51.114;13.666;2023-07-29T10:05:14;69853.41;;;24.29;100.00
36354;BME280;22383;51.114;13.666;2023-07-29T10:07:41;69869.72;;;24.22;100.00
36354;BME280;22383;51.114;13.666;2023-07-29T10:10:08;69850.44;;;24.07;100.00
36354;BME280;22383;51.114;13.666;2023-07-29T10:12:36;69799.03;;;23.81;100.00
36354;BME280;22383;51.114;13.666;2023-07-29T10:15:03;69759.53;;;23.45;100.00
36354;BME280;22383;51.114;13.666;2023-07-29T10:17:35;69770.13;;;23.33;100.00
36354;BME280;22383;51.114;13.666;2023-07-29T10:20:03;69778.84;;;23.43;100.00
36354;BME280;22383;51.114;13.666;2023-07-29T10:22:33;69812.03;;;23.73;100.00
36354;BME280;22383;51.114;13.666;2023-07-29T10:25:05;69815.63;;;23.95;100.00
36354;BME280;22383;51.114;13.666;2023-07-29T10:27:35;69865.88;;;24.21;100.00
36354;BME280;22383;51.114;13.666;2023-07-29T10:30:03;69866.56;;;24.41;100.00
36354;BME280;22383;51.114;13.666;2023-07-29T10:32:30;69890.06;;;24.62;100.00
36354;BME280;22383;51.114;13.666;2023-07-29T10:34:59;69925.44;;;24.75;100.00
36354;BME280;22383;51.114;13.666;2023-07-29T10:37:26;69905.50;;;24.76;100.00
36354;BME280;22383;51.114;13.666;2023-07-29T10:39:54;69911.81;;;24.82;100.00
36354;BME280;22383;51.114;13.666;2023-07-29T10:42:22;69918.56;;;24.68;100.00
36354;BME280;22383;51.114;13.666;2023-07-29T10:44:51;69859.13;;;24.34;100.00
36354;BME280;22383;51.114;13.666;2023-07-29T10:47:22;69872.00;;;24.24;100.00
36354;BME280;22383;51.114;13.666;2023-07-29T10:49:51;69854.53;;;24.30;100.00
36354;BME280;22383;51.114;13.666;2023-07-29T10:55:01;69841.25;;;23.99;100.00
36354;BME280;22383;51.114;13.666;2023-07-29T11:00:00;69831.94;;;23.88;100.00
36354;BME280;22383;51.114;13.666;2023-07-29T11:02:31;69827.66;;;24.06;100.00
36354;BME280;22383;51.114;13.666;2023-07-29T11:04:59;69874.28;;;24.26;100.00
36354;BME280;22383;51.114;13.666;2023-07-29T11:07:27;69844.25;;;24.21;100.00
36354;BME280;22383;51.114;13.666;2023-07-29T11:09:55;69865.41;;;24.40;100.00
36354;BME280;22383;51.114;13.666;2023-07-29T11:15:04;69849.94;;;24.26;100.00
36354;BME280;22383;51.114;13.666;2023-07-29T11:17:32;69858.44;;;24.14;100.00
36354;BME280;22383;51.114;13.666;2023-07-29T11:20:02;69863.56;;;24.19;100.00
36354;BME280;22383;51.114;13.666;2023-07-29T11:22:30;69831.09;;;24.09;100.00
36354;BME280;22383;51.114;13.666;2023-07-29T11:25:01;69824.91;;;23.79;100.00
36354;BME280;22383;51.114;13.666;2023-07-29T11:27:28;69772.13;;;23.56;100.00
36354;BME280;22383;51.114;13.666;2023-07-29T11:29:59;69776.56;;;23.41;100.00
36354;BME280;22383;51.114;13.666;2023-07-29T11:32:26;69773.56;;;23.36;100.00
36354;BME280;22383;51.114;13.666;2023-07-29T11:34:54;69772.56;;;23.37;100.00
36354;BME280;22383;51.114;13.666;2023-07-29T11:37:21;69785.75;;;23.49;100.00
36354;BME280;22383;51.114;13.666;2023-07-29T11:39:48;69777.16;;;23.41;100.00
36354;BME280;22383;51.114;13.666;2023-07-29T11:42:16;69781.72;;;23.46;100.00
36354;BME280;22383;51.114;13.666;2023-07-29T11:44:43;69757.81;;;23.44;100.00
36354;BME280;22383;51.114;13.666;2023-07-29T11:47:10;69780.00;;;23.44;100.00
36354;BME280;22383;51.114;13.666;2023-07-29T11:49:39;69751.53;;;23.38;100.00
36354;BME280;22383;51.114;13.666;2023-07-29T11:52:07;69756.56;;;23.23;100.00
36354;BME280;22383;51.114;13.666;2023-07-29T11:54:36;69754.84;;;23.21;100.00
36354;BME280;22383;51.114;13.666;2023-07-29T11:57:07;69746.25;;;23.14;100.00
36354;BME280;22383;51.114;13.666;2023-07-29T11:59:37;69754.25;;;23.21;100.00
36354;BME280;22383;51.114;13.666;2023-07-29T12:02:09;69739.97;;;23.08;100.00
36354;BME280;22383;51.114;13.666;2023-07-29T12:04:37;69735.94;;;23.04;100.00
36354;BME280;22383;51.114;13.666;2023-07-29T12:07:05;69696.06;;;22.88;100.00
36354;BME280;22383;51.114;13.666;2023-07-29T12:09:36;69715.19;;;22.83;100.00
36354;BME280;22383;51.114;13.666;2023-07-29T12:12:06;69706.75;;;22.78;100.00
36354;BME280;22383;51.114;13.666;2023-07-29T12:14:50;69719.75;;;22.88;100.00
36354;BME280;22383;51.114;13.666;2023-07-29T12:17:21;69738.25;;;23.07;100.00
36354;BME280;22383;51.114;13.666;2023-07-29T12:19:53;69753.69;;;23.20;100.00
36354;BME280;22383;51.114;13.666;2023-07-29T12:22:24;69728.66;;;23.17;100.00
36354;BME280;22383;51.114;13.666;2023-07-29T12:25:00;69773.69;;;23.38;100.00
36354;BME280;22383;51.114;13.666;2023-07-29T12:27:34;69800.28;;;23.57;100.00
36354;BME280;22383;51.114;13.666;2023-07-29T12:30:19;69784.72;;;23.68;100.00
36354;BME280;22383;51.114;13.666;2023-07-29T12:32:51;69775.56;;;23.59;100.00
36354;BME280;22383;51.114;13.666;2023-07-29T12:35:39;69809.75;;;23.71;100.00
36354;BME280;22383;51.114;13.666;2023-07-29T12:38:09;69813.78;;;23.74;100.00
36354;BME280;22383;51.114;13.666;2023-07-29T12:40:47;69835.94;;;23.92;100.00
36354;BME280;22383;51.114;13.666;2023-07-29T12:43:26;69841.25;;;23.99;100.00
36354;BME280;22383;51.114;13.666;2023-07-29T12:45:57;69877.16;;;24.29;100.00
36354;BME280;22383;51.114;13.666;2023-07-29T12:48:32;69844.25;;;24.21;100.00
36354;BME280;22383;51.114;13.666;2023-07-29T12:51:09;69836.22;;;24.14;100.00
36354;BME280;22383;51.114;13.666;2023-07-29T12:53:39;69835.53;;;23.94;100.00
36354;BME280;22383;51.114;13.666;2023-07-29T12:56:10;69800.75;;;23.82;100.00
36354;BME280;22383;51.114;13.666;2023-07-29T12:58:39;69795.59;;;23.77;100.00
36354;BME280;22383;51.114;13.666;2023-07-29T13:01:09;69802.47;;;23.84;100.00